createdAt,value
2023-03-13T00:02:46.844Z,100.00
2023-03-13T00:07:50.097Z,100.00
2023-03-13T00:12:52.559Z,100.00
2023-03-13T00:17:54.931Z,100.00
2023-03-13T00:22:57.402Z,100.00
2023-03-13T00:28:00.131Z,100.00
2023-03-13T00:33:02.688Z,100.00
2023-03-13T00:38:05.435Z,100.00
2023-03-13T00:43:08.088Z,100.00
2023-03-13T00:48:10.729Z,100.00
2023-03-13T00:53:13.029Z,100.00
2023-03-13T00:58:15.336Z,100.00
2023-03-13T01:03:17.936Z,100.00
2023-03-13T01:08:20.364Z,100.00
2023-03-13T01:13:22.675Z,100.00
2023-03-13T01:18:26.064Z,100.00
2023-03-13T01:23:29.451Z,100.00
2023-03-13T01:28:32.243Z,100.00
2023-03-13T01:33:34.509Z,100.00
2023-03-13T01:38:36.787Z,100.00
2023-03-13T01:43:39.529Z,100.00
2023-03-13T01:48:48.614Z,100.00
2023-03-13T01:53:51.673Z,100.00
2023-03-13T01:58:54.062Z,100.00
2023-03-13T02:03:56.370Z,100.00
2023-03-13T02:08:58.638Z,100.00
2023-03-13T02:14:01.420Z,100.00
2023-03-13T02:19:04.954Z,100.00
2023-03-13T02:24:07.486Z,100.00
2023-03-13T02:29:10.016Z,100.00
2023-03-13T02:34:12.534Z,100.00
2023-03-13T02:39:14.915Z,100.00
2023-03-13T02:44:17.633Z,100.00
2023-03-13T02:49:20.131Z,100.00
2023-03-13T02:54:23.722Z,100.00
2023-03-13T02:59:26.966Z,100.00
2023-03-13T03:04:29.558Z,100.00
2023-03-13T03:09:32.139Z,100.00
2023-03-13T03:14:34.918Z,100.00
2023-03-13T03:19:37.484Z,100.00
2023-03-13T03:24:39.794Z,100.00
2023-03-13T03:29:42.680Z,100.00
2023-03-13T03:34:45.082Z,100.00
2023-03-13T03:39:47.373Z,100.00
2023-03-13T03:44:49.668Z,100.00
2023-03-13T03:49:53.571Z,100.00
2023-03-13T03:54:56.062Z,100.00
2023-03-13T03:59:59.002Z,100.00
2023-03-13T04:05:01.856Z,100.00
2023-03-13T04:10:05.241Z,100.00
2023-03-13T04:15:07.694Z,100.00
2023-03-13T04:20:13.637Z,100.00
2023-03-13T04:25:25.938Z,100.00
2023-03-13T04:30:28.372Z,100.00
2023-03-13T04:35:32.236Z,100.00
2023-03-13T04:40:34.951Z,100.00
2023-03-13T04:45:37.848Z,100.00
2023-03-13T04:50:41.068Z,100.00
2023-03-13T04:55:43.595Z,100.00
2023-03-13T05:00:49.021Z,100.00
2023-03-13T05:05:51.387Z,100.00
2023-03-13T05:11:03.123Z,100.00
2023-03-13T05:16:05.475Z,100.00
2023-03-13T05:21:08.181Z,100.00
2023-03-13T05:26:10.534Z,100.00
2023-03-13T05:31:14.133Z,100.00
2023-03-13T05:36:16.586Z,100.00
2023-03-13T05:41:19.306Z,100.00
2023-03-13T05:46:24.053Z,100.00
2023-03-13T05:51:26.386Z,100.00
2023-03-13T05:56:28.707Z,100.00
2023-03-13T06:01:31.095Z,100.00
2023-03-13T06:06:43.377Z,100.00
2023-03-13T06:11:52.827Z,100.00
2023-03-13T06:16:56.891Z,100.00
2023-03-13T06:21:59.288Z,100.00
2023-03-13T06:27:01.704Z,100.00
2023-03-13T06:32:04.898Z,100.00
2023-03-13T06:37:07.608Z,100.00
2023-03-13T06:42:19.562Z,100.00
2023-03-13T06:47:22.278Z,100.00
2023-03-13T06:52:37.451Z,100.00
2023-03-13T06:57:44.114Z,100.00
2023-03-13T07:02:47.426Z,100.00
2023-03-13T07:07:49.857Z,100.00
2023-03-13T07:12:52.206Z,100.00
2023-03-13T07:17:54.541Z,100.00
2023-03-13T07:22:57.629Z,100.00
2023-03-13T07:28:01.448Z,100.00
2023-03-13T07:33:03.965Z,100.00
2023-03-13T07:38:09.469Z,100.00
2023-03-13T07:43:11.891Z,100.00
2023-03-13T07:48:14.693Z,100.00
2023-03-13T07:53:21.150Z,100.00
2023-03-13T07:58:23.592Z,100.00
2023-03-13T08:03:25.943Z,100.00
2023-03-13T08:08:28.391Z,100.00
2023-03-13T08:13:31.028Z,100.00
2023-03-13T08:18:35.198Z,100.00
2023-03-13T08:23:37.694Z,100.00
2023-03-13T08:28:40.186Z,100.00
2023-03-13T08:33:43.542Z,100.00
2023-03-13T08:38:46.898Z,100.00
2023-03-13T08:43:49.254Z,100.00
2023-03-13T08:48:51.782Z,100.00
2023-03-13T08:53:54.201Z,100.00
2023-03-13T08:58:56.634Z,100.00
2023-03-13T09:04:03.465Z,100.00
2023-03-13T09:09:07.010Z,100.00
2023-03-13T09:14:09.852Z,100.00
2023-03-13T09:19:12.907Z,100.00
2023-03-13T09:24:15.701Z,100.00
2023-03-13T09:29:18.875Z,100.00
2023-03-13T09:34:23.262Z,100.00
2023-03-13T09:39:26.446Z,100.00
2023-03-13T09:44:28.795Z,100.00
2023-03-13T09:49:32.066Z,100.00
2023-03-13T09:54:35.800Z,100.00
2023-03-13T09:59:40.128Z,94.64
2023-03-13T10:04:42.689Z,89.12
2023-03-13T10:09:45.098Z,82.88
2023-03-13T10:14:47.533Z,79.67
2023-03-13T10:19:49.916Z,76.29
2023-03-13T10:24:52.279Z,75.67
2023-03-13T10:29:55.984Z,69.63
2023-03-13T10:34:58.528Z,67.74
2023-03-13T10:40:00.941Z,70.84
2023-03-13T10:45:03.383Z,68.35
2023-03-13T10:50:15.771Z,69.98
2023-03-13T10:55:28.216Z,72.62
2023-03-13T11:00:30.686Z,73.73
2023-03-13T11:05:33.214Z,73.58
2023-03-13T11:10:37.138Z,70.78
2023-03-13T11:15:40.058Z,73.04
2023-03-13T11:20:42.425Z,78.12
2023-03-13T11:25:45.585Z,78.20
2023-03-13T11:30:48.054Z,78.99
2023-03-13T11:35:50.545Z,80.00
2023-03-13T11:40:53.038Z,83.10
2023-03-13T11:45:55.508Z,86.29
2023-03-13T11:50:58.995Z,86.00
2023-03-13T11:56:01.348Z,87.43
2023-03-13T12:01:13.820Z,84.94
2023-03-13T12:06:27.583Z,83.03
2023-03-13T12:11:30.746Z,78.60
2023-03-13T12:16:33.122Z,81.31
2023-03-13T12:21:36.341Z,82.34
2023-03-13T12:26:38.676Z,84.63
2023-03-13T12:31:40.971Z,81.05
2023-03-13T12:36:43.369Z,78.54
2023-03-13T12:41:46.492Z,81.16
2023-03-13T12:46:48.978Z,78.99
2023-03-13T12:51:51.347Z,80.03
2023-03-13T12:56:53.700Z,79.88
2023-03-13T13:01:56.401Z,79.85
2023-03-13T13:07:01.856Z,79.14
2023-03-13T13:12:14.308Z,80.45
2023-03-13T13:17:18.430Z,80.67
2023-03-13T13:22:20.885Z,82.86
2023-03-13T13:27:23.203Z,83.32
2023-03-13T13:32:26.347Z,84.12
2023-03-13T13:37:30.099Z,80.47
2023-03-13T13:42:45.577Z,78.27
2023-03-13T13:47:47.909Z,83.01
2023-03-13T13:52:50.378Z,82.63
2023-03-13T13:57:52.757Z,82.71
2023-03-13T14:02:55.900Z,83.82
2023-03-13T14:07:59.149Z,83.92
2023-03-13T14:13:01.525Z,83.68
2023-03-13T14:18:03.857Z,83.70
2023-03-13T14:23:06.319Z,82.41
2023-03-13T14:28:08.767Z,82.48
2023-03-13T14:33:11.095Z,83.45
2023-03-13T14:38:14.662Z,81.11
2023-03-13T14:43:17.048Z,80.27
2023-03-13T14:48:19.533Z,79.77
2023-03-13T14:53:21.940Z,79.53
2023-03-13T14:58:24.325Z,78.89
2023-03-13T15:03:27.321Z,78.51
2023-03-13T15:08:39.662Z,78.39
2023-03-13T15:13:42.253Z,79.20
2023-03-13T15:18:44.727Z,81.72
2023-03-13T15:23:48.028Z,81.54
2023-03-13T15:28:50.502Z,81.19
2023-03-13T15:33:52.869Z,79.82
2023-03-13T15:38:55.206Z,82.10
2023-03-13T15:43:57.710Z,82.97
2023-03-13T15:49:00.036Z,82.58
2023-03-13T15:54:04.064Z,85.54
2023-03-13T15:59:07.300Z,87.49
2023-03-13T16:04:10.436Z,87.65
2023-03-13T16:09:12.795Z,87.54
2023-03-13T16:14:15.128Z,87.42
2023-03-13T16:19:18.189Z,85.87
2023-03-13T16:24:20.989Z,89.01
2023-03-13T16:29:24.277Z,93.29
2023-03-13T16:34:27.430Z,94.20
2023-03-13T16:39:29.818Z,96.47
2023-03-13T16:44:32.146Z,95.57
2023-03-13T16:49:35.083Z,98.07
2023-03-13T16:54:37.434Z,100.00
2023-03-13T16:59:39.766Z,100.00
2023-03-13T17:04:44.623Z,100.00
2023-03-13T17:09:47.282Z,100.00
2023-03-13T17:14:49.664Z,100.00
2023-03-13T17:19:52.788Z,100.00
2023-03-13T17:24:55.533Z,100.00
2023-03-13T17:29:58.772Z,100.00
2023-03-13T17:35:01.379Z,100.00
2023-03-13T17:40:05.755Z,100.00
2023-03-13T17:45:08.084Z,100.00
2023-03-13T17:50:10.379Z,100.00
2023-03-13T17:55:13.652Z,100.00
2023-03-13T18:00:15.936Z,100.00
2023-03-13T18:05:18.332Z,100.00
2023-03-13T18:10:20.643Z,100.00
2023-03-13T18:15:24.943Z,100.00
2023-03-13T18:20:27.323Z,100.00
2023-03-13T18:25:29.692Z,100.00
2023-03-13T18:30:32.051Z,100.00
2023-03-13T18:35:34.491Z,100.00
2023-03-13T18:40:37.020Z,100.00
2023-03-13T18:45:39.393Z,100.00
2023-03-13T18:50:41.797Z,100.00
2023-03-13T18:55:45.044Z,100.00
2023-03-13T19:00:47.508Z,100.00
2023-03-13T19:05:49.910Z,100.00
2023-03-13T19:10:53.204Z,100.00
2023-03-13T19:15:55.621Z,100.00
2023-03-13T19:20:58.773Z,100.00
2023-03-13T19:26:01.592Z,100.00
2023-03-13T19:31:04.024Z,100.00
2023-03-13T19:36:06.465Z,100.00
2023-03-13T19:41:08.788Z,100.00
2023-03-13T19:46:12.029Z,100.00
2023-03-13T19:51:15.426Z,100.00
2023-03-13T19:56:18.644Z,100.00
2023-03-13T20:01:21.149Z,100.00
2023-03-13T20:06:23.676Z,100.00
2023-03-13T20:11:26.121Z,100.00
2023-03-13T20:16:30.208Z,100.00
2023-03-13T20:21:33.348Z,100.00
2023-03-13T20:26:36.155Z,100.00
2023-03-13T20:31:39.799Z,100.00
2023-03-13T20:36:42.163Z,100.00
2023-03-13T20:41:44.929Z,100.00
2023-03-13T20:46:47.340Z,100.00
2023-03-13T20:51:49.677Z,100.00
2023-03-13T20:56:52.042Z,100.00
2023-03-13T21:01:54.459Z,100.00
2023-03-13T21:07:04.347Z,100.00
2023-03-13T21:12:06.772Z,100.00
2023-03-13T21:17:12.735Z,100.00
2023-03-13T21:22:17.169Z,100.00
2023-03-13T21:27:20.390Z,100.00
2023-03-13T21:32:23.573Z,100.00
2023-03-13T21:37:26.013Z,100.00
2023-03-13T21:42:29.421Z,100.00
2023-03-13T21:47:36.596Z,100.00
2023-03-13T21:52:41.306Z,100.00
2023-03-13T21:57:45.024Z,100.00
2023-03-13T22:02:47.371Z,100.00
2023-03-13T22:07:49.666Z,100.00
2023-03-13T22:12:52.017Z,100.00
2023-03-13T22:17:54.796Z,100.00
2023-03-13T22:22:57.892Z,100.00
2023-03-13T22:28:00.197Z,100.00
2023-03-13T22:33:03.958Z,100.00
2023-03-13T22:38:07.116Z,100.00
2023-03-13T22:43:10.264Z,100.00
2023-03-13T22:48:13.341Z,100.00
2023-03-13T22:53:16.322Z,100.00
2023-03-13T22:58:18.637Z,100.00
2023-03-13T23:03:21.046Z,100.00
2023-03-13T23:08:33.467Z,100.00
2023-03-13T23:13:40.483Z,100.00
2023-03-13T23:18:44.396Z,100.00
2023-03-13T23:23:47.142Z,100.00
2023-03-13T23:28:49.443Z,100.00
2023-03-13T23:33:51.783Z,100.00
2023-03-13T23:38:54.514Z,100.00
2023-03-13T23:43:57.397Z,100.00
2023-03-13T23:48:59.711Z,100.00
2023-03-13T23:54:04.993Z,100.00
2023-03-13T23:59:18.348Z,100.00
